createdAt,value
2022-09-01T00:00:34.944Z,19.09
2022-09-01T00:03:37.787Z,19.45
2022-09-01T00:06:41.390Z,18.92
2022-09-01T00:09:44.201Z,19.02
2022-09-01T00:12:48.628Z,19.22
2022-09-01T00:15:51.506Z,18.86
2022-09-01T00:18:54.933Z,18.73
2022-09-01T00:21:57.880Z,19.83
2022-09-01T00:25:01.346Z,19.38
2022-09-01T00:28:05.659Z,19.25
2022-09-01T00:31:08.971Z,19.23
2022-09-01T00:34:12.064Z,19.10
2022-09-01T00:37:14.931Z,19.26
2022-09-01T00:40:18.168Z,19.09
2022-09-01T00:43:24.422Z,19.42
2022-09-01T00:46:29.046Z,19.59
2022-09-01T00:49:35.197Z,19.08
2022-09-01T00:52:40.677Z,19.27
2022-09-01T00:55:43.641Z,19.10
2022-09-01T00:58:47.821Z,18.91
2022-09-01T01:01:50.838Z,18.89
2022-09-01T01:04:56.183Z,18.72
2022-09-01T01:08:00.212Z,18.68
2022-09-01T01:11:03.577Z,18.74
2022-09-01T01:14:12.261Z,18.70
2022-09-01T01:17:15.156Z,18.46
2022-09-01T01:20:35.902Z,18.65
2022-09-01T01:23:41.819Z,18.54
2022-09-01T01:26:47.524Z,18.60
2022-09-01T01:29:50.337Z,18.63
2022-09-01T01:32:53.185Z,18.52
2022-09-01T01:35:57.708Z,18.71
2022-09-01T01:39:02.108Z,18.37
2022-09-01T01:42:09.377Z,18.54
2022-09-01T01:45:13.277Z,18.28
2022-09-01T01:48:22.922Z,18.22
2022-09-01T01:51:28.541Z,18.17
2022-09-01T01:54:32.683Z,17.90
2022-09-01T01:57:37.476Z,18.10
2022-09-01T02:00:42.986Z,17.98
2022-09-01T02:03:45.775Z,17.88
2022-09-01T02:06:49.021Z,17.81
2022-09-01T02:09:52.243Z,17.63
2022-09-01T02:13:04.822Z,17.70
2022-09-01T02:16:12.203Z,17.53
2022-09-01T02:19:15.231Z,17.53
2022-09-01T02:22:19.883Z,17.48
2022-09-01T02:25:23.538Z,17.43
2022-09-01T02:28:28.681Z,17.60
2022-09-01T02:31:32.196Z,17.62
2022-09-01T02:34:35.028Z,17.29
2022-09-01T02:37:39.457Z,17.30
2022-09-01T02:40:45.591Z,17.62
2022-09-01T02:43:49.828Z,17.48
2022-09-01T02:46:53.372Z,17.50
2022-09-01T02:49:56.122Z,17.20
2022-09-01T02:53:03.335Z,17.60
2022-09-01T02:56:09.716Z,17.10
2022-09-01T02:59:15.478Z,17.16
2022-09-01T03:02:18.252Z,16.91
2022-09-01T03:05:25.449Z,16.86
2022-09-01T03:08:28.196Z,17.10
2022-09-01T03:11:32.064Z,16.67
2022-09-01T03:14:36.331Z,16.56
2022-09-01T03:17:39.141Z,16.75
2022-09-01T03:20:44.753Z,16.49
2022-09-01T03:23:48.326Z,16.71
2022-09-01T03:26:51.598Z,16.75
2022-09-01T03:29:55.742Z,16.87
2022-09-01T03:32:58.807Z,16.93
2022-09-01T03:36:01.616Z,16.64
2022-09-01T03:39:05.535Z,16.86
2022-09-01T03:42:11.175Z,16.64
2022-09-01T03:45:16.383Z,16.51
2022-09-01T03:48:19.628Z,16.60
2022-09-01T03:51:23.374Z,16.43
2022-09-01T03:54:27.987Z,16.60
2022-09-01T03:57:32.524Z,16.98
2022-09-01T04:00:39.053Z,16.88
2022-09-01T04:03:45.006Z,16.71
2022-09-01T04:06:48.244Z,16.80
2022-09-01T04:09:52.605Z,16.76
2022-09-01T04:12:56.576Z,16.80
2022-09-01T04:16:00.879Z,16.75
2022-09-01T04:19:09.372Z,16.85
2022-09-01T04:22:14.426Z,16.88
2022-09-01T04:25:28.551Z,17.23
2022-09-01T04:28:34.071Z,17.35
2022-09-01T04:31:40.267Z,16.94
2022-09-01T04:34:43.210Z,17.31
2022-09-01T04:37:48.604Z,17.36
2022-09-01T04:40:51.827Z,17.52
2022-09-01T04:43:56.567Z,17.66
2022-09-01T04:47:00.720Z,17.92
2022-09-01T04:50:04.477Z,17.95
2022-09-01T04:53:07.852Z,18.14
2022-09-01T04:56:10.891Z,18.10
2022-09-01T04:59:14.972Z,17.87
2022-09-01T05:02:19.496Z,17.95
2022-09-01T05:05:23.039Z,17.96
2022-09-01T05:08:26.326Z,18.46
2022-09-01T05:11:29.372Z,19.24
2022-09-01T05:14:32.920Z,18.54
2022-09-01T05:17:37.840Z,18.44
2022-09-01T05:20:42.739Z,18.82
2022-09-01T05:23:47.141Z,18.77
2022-09-01T05:26:50.968Z,19.48
2022-09-01T05:29:54.234Z,19.31
2022-09-01T05:32:58.399Z,19.17
2022-09-01T05:36:02.117Z,19.28
2022-09-01T05:39:06.047Z,19.48
2022-09-01T05:42:09.215Z,19.37
2022-09-01T05:45:12.933Z,19.30
2022-09-01T05:48:23.756Z,19.43
2022-09-01T05:51:43.787Z,19.77
2022-09-01T05:54:48.146Z,20.07
2022-09-01T05:57:52.809Z,20.02
2022-09-01T06:00:59.312Z,19.93
2022-09-01T06:04:05.838Z,19.82
2022-09-01T06:07:11.881Z,19.97
2022-09-01T06:10:16.529Z,20.43
2022-09-01T06:13:21.963Z,20.60
2022-09-01T06:16:30.964Z,20.52
2022-09-01T06:19:37.321Z,21.20
2022-09-01T06:22:41.239Z,20.97
2022-09-01T06:25:46.960Z,20.68
2022-09-01T06:28:54.519Z,21.05
2022-09-01T06:31:59.040Z,21.31
2022-09-01T06:35:05.751Z,21.39
2022-09-01T06:38:09.363Z,21.53
2022-09-01T06:41:13.164Z,21.26
2022-09-01T06:44:16.192Z,20.99
2022-09-01T06:47:19.580Z,21.85
2022-09-01T06:53:50.154Z,21.67
2022-09-01T06:56:53.574Z,22.23
2022-09-01T06:59:56.598Z,21.57
2022-09-01T07:02:59.832Z,22.03
2022-09-01T07:06:07.011Z,21.94
2022-09-01T07:09:20.061Z,22.13
2022-09-01T07:12:25.980Z,21.90
2022-09-01T07:19:01.070Z,22.75
2022-09-01T07:22:07.381Z,23.08
2022-09-01T07:25:12.968Z,22.61
2022-09-01T07:28:17.440Z,22.55
2022-09-01T07:34:50.025Z,22.34
2022-09-01T07:44:44.231Z,22.62
2022-09-01T07:47:54.521Z,22.63
2022-09-01T07:54:24.110Z,22.09
2022-09-01T07:57:27.148Z,22.53
2022-09-01T08:00:31.830Z,23.30
2022-09-01T08:03:34.853Z,23.19
2022-09-01T08:06:39.210Z,23.08
2022-09-01T08:09:44.754Z,22.85
2022-09-01T08:12:56.337Z,23.30
2022-09-01T08:16:17.094Z,22.90
2022-09-01T08:19:23.161Z,22.85
2022-09-01T08:22:26.049Z,23.31
2022-09-01T08:25:30.252Z,23.38
2022-09-01T08:28:34.104Z,22.82
2022-09-01T08:31:37.072Z,23.22
2022-09-01T08:34:40.021Z,23.69
2022-09-01T08:37:43.726Z,23.36
2022-09-01T08:40:56.085Z,23.35
2022-09-01T08:44:05.030Z,23.68
2022-09-01T08:47:12.939Z,23.98
2022-09-01T08:50:20.753Z,23.55
2022-09-01T08:53:26.798Z,23.87
2022-09-01T08:56:31.122Z,23.63
2022-09-01T08:59:34.140Z,23.85
2022-09-01T09:02:42.210Z,24.24
2022-09-01T09:05:58.738Z,24.97
2022-09-01T09:09:04.807Z,26.08
2022-09-01T09:12:16.530Z,28.20
2022-09-01T09:15:23.715Z,24.47
2022-09-01T09:18:39.600Z,23.69
2022-09-01T09:21:44.519Z,28.00
2022-09-01T09:24:50.427Z,30.06
2022-09-01T09:28:02.794Z,25.39
2022-09-01T09:31:24.343Z,24.74
2022-09-01T09:34:34.772Z,23.60
2022-09-01T09:37:37.647Z,23.95
2022-09-01T09:41:07.543Z,24.65
2022-09-01T09:44:08.491Z,24.59
2022-09-01T09:47:43.708Z,25.04
2022-09-01T09:50:47.170Z,23.55
2022-09-01T09:53:51.208Z,25.83
2022-09-01T09:57:11.750Z,28.19
2022-09-01T10:00:23.800Z,26.55
2022-09-01T10:03:36.391Z,26.56
2022-09-01T10:06:42.378Z,30.09
2022-09-01T10:09:46.552Z,30.97
2022-09-01T10:12:49.431Z,27.52
2022-09-01T10:15:55.161Z,27.02
2022-09-01T10:19:00.872Z,24.85
2022-09-01T10:22:03.909Z,28.54
2022-09-01T10:25:10.486Z,29.71
2022-09-01T10:28:20.972Z,26.11
2022-09-01T10:31:32.212Z,29.00
2022-09-01T10:34:37.510Z,30.57
2022-09-01T10:37:41.562Z,26.00
2022-09-01T10:40:50.025Z,25.34
2022-09-01T10:43:53.169Z,28.29
2022-09-01T10:47:01.790Z,31.08
2022-09-01T10:50:10.167Z,26.84
2022-09-01T10:53:34.751Z,25.75
2022-09-01T10:56:43.704Z,24.58
2022-09-01T10:59:56.409Z,25.66
2022-09-01T11:03:31.628Z,25.12
2022-09-01T11:10:33.661Z,24.94
2022-09-01T11:13:38.889Z,25.47
2022-09-01T11:16:50.124Z,26.71
2022-09-01T11:19:58.391Z,26.23
2022-09-01T11:23:05.526Z,25.30
2022-09-01T11:29:57.090Z,24.34
2022-09-01T11:33:03.438Z,24.74
2022-09-01T11:36:07.973Z,25.50
2022-09-01T11:39:30.230Z,25.58
2022-09-01T11:42:37.924Z,25.58
2022-09-01T11:45:46.496Z,25.47
2022-09-01T11:48:51.774Z,24.29
2022-09-01T11:51:55.214Z,25.10
2022-09-01T11:54:58.700Z,24.76
2022-09-01T11:58:01.925Z,24.12
2022-09-01T12:01:15.103Z,24.61
2022-09-01T12:04:23.320Z,25.37
2022-09-01T12:07:31.634Z,24.69
2022-09-01T12:10:35.202Z,23.70
2022-09-01T12:13:39.480Z,24.44
2022-09-01T12:16:43.777Z,26.24
2022-09-01T12:19:46.628Z,25.67
2022-09-01T12:22:51.808Z,25.57
2022-09-01T12:25:56.046Z,27.02
2022-09-01T12:28:59.437Z,26.23
2022-09-01T12:32:04.079Z,25.10
2022-09-01T12:35:15.438Z,25.76
2022-09-01T12:38:23.260Z,23.70
2022-09-01T12:41:36.351Z,25.05
2022-09-01T12:44:47.208Z,25.23
2022-09-01T12:47:54.051Z,25.73
2022-09-01T12:50:57.794Z,26.58
2022-09-01T12:54:04.832Z,26.52
2022-09-01T12:57:07.924Z,26.67
2022-09-01T13:00:18.160Z,26.72
2022-09-01T13:03:23.570Z,26.70
2022-09-01T13:06:27.378Z,26.76
2022-09-01T13:09:30.312Z,26.78
2022-09-01T13:12:33.099Z,26.83
2022-09-01T13:15:37.245Z,26.99
2022-09-01T13:22:08.290Z,23.45
2022-09-01T13:25:11.554Z,28.39
2022-09-01T13:28:15.207Z,30.06
2022-09-01T13:31:34.425Z,30.27
2022-09-01T13:34:41.029Z,28.60
2022-09-01T13:37:43.928Z,28.54
2022-09-01T13:40:49.534Z,27.37
2022-09-01T13:43:52.591Z,27.99
2022-09-01T13:50:23.945Z,25.84
2022-09-01T13:53:27.436Z,27.17
2022-09-01T13:56:30.326Z,26.83
2022-09-01T13:59:33.299Z,27.79
2022-09-01T14:02:37.000Z,26.17
2022-09-01T14:05:42.943Z,25.95
2022-09-01T14:08:45.819Z,27.54
2022-09-01T14:11:48.628Z,25.75
2022-09-01T14:18:16.432Z,24.10
2022-09-01T14:21:20.981Z,25.40
2022-09-01T14:24:23.855Z,24.60
2022-09-01T14:27:26.822Z,23.18
2022-09-01T14:30:31.665Z,22.89
2022-09-01T14:33:34.712Z,23.43
2022-09-01T14:36:39.492Z,23.18
2022-09-01T14:39:42.411Z,22.00
2022-09-01T14:42:49.240Z,23.49
2022-09-01T14:46:05.051Z,23.88
2022-09-01T14:49:08.337Z,22.65
2022-09-01T14:52:14.499Z,22.96
2022-09-01T14:55:17.318Z,22.76
2022-09-01T14:58:20.144Z,22.29
2022-09-01T15:01:34.404Z,22.53
2022-09-01T15:04:37.912Z,21.56
2022-09-01T15:07:43.123Z,20.74
2022-09-01T15:10:46.129Z,21.03
2022-09-01T15:13:52.647Z,21.32
2022-09-01T15:16:56.368Z,22.19
2022-09-01T15:20:20.414Z,21.98
2022-09-01T15:23:25.844Z,21.27
2022-09-01T15:26:29.125Z,20.86
2022-09-01T15:29:34.173Z,19.98
2022-09-01T15:32:36.983Z,19.92
2022-09-01T15:35:39.832Z,20.11
2022-09-01T15:38:44.272Z,19.77
2022-09-01T15:41:47.072Z,19.43
2022-09-01T15:44:50.027Z,20.27
2022-09-01T15:47:52.847Z,19.98
2022-09-01T15:51:02.907Z,20.11
2022-09-01T15:54:08.240Z,19.39
2022-09-01T15:57:12.135Z,19.73
2022-09-01T16:00:15.583Z,18.97
2022-09-01T16:03:19.153Z,19.00
2022-09-01T16:06:22.024Z,18.97
2022-09-01T16:09:26.880Z,18.83
2022-09-01T16:12:31.221Z,18.52
2022-09-01T16:15:35.442Z,18.55
2022-09-01T16:18:41.726Z,18.83
2022-09-01T16:21:50.447Z,19.13
2022-09-01T16:24:56.240Z,19.42
2022-09-01T16:28:02.861Z,19.68
2022-09-01T16:31:08.159Z,19.42
2022-09-01T16:34:14.770Z,19.73
2022-09-01T16:37:24.420Z,19.25
2022-09-01T16:40:35.506Z,18.73
2022-09-01T16:43:43.095Z,19.05
2022-09-01T16:46:51.676Z,18.93
2022-09-01T16:50:05.318Z,18.86
2022-09-01T16:53:15.619Z,18.82
2022-09-01T16:56:24.613Z,18.29
2022-09-01T16:59:33.895Z,18.61
2022-09-01T17:02:43.421Z,17.88
2022-09-01T17:05:51.617Z,17.60
2022-09-01T17:09:04.252Z,17.83
2022-09-01T17:12:17.300Z,17.91
2022-09-01T17:15:21.212Z,17.05
2022-09-01T17:18:29.871Z,16.21
2022-09-01T17:21:37.637Z,15.86
2022-09-01T17:24:42.763Z,16.55
2022-09-01T17:27:53.071Z,15.82
2022-09-01T17:31:00.622Z,15.87
2022-09-01T17:34:09.900Z,15.92
2022-09-01T17:37:20.706Z,15.68
2022-09-01T17:40:28.811Z,15.68
2022-09-01T17:43:46.192Z,15.93
2022-09-01T17:46:57.212Z,15.62
2022-09-01T17:50:02.598Z,15.35
2022-09-01T17:53:10.276Z,15.37
2022-09-01T17:56:21.417Z,15.52
2022-09-01T17:59:30.230Z,15.17
2022-09-01T18:02:50.186Z,15.48
2022-09-01T18:05:57.539Z,15.55
2022-09-01T18:09:00.413Z,15.87
2022-09-01T18:12:06.615Z,15.19
2022-09-01T18:15:12.332Z,15.32
2022-09-01T18:18:27.423Z,15.17
2022-09-01T18:21:33.071Z,15.10
2022-09-01T18:24:43.274Z,15.16
2022-09-01T18:27:51.241Z,14.97
2022-09-01T18:30:59.374Z,14.95
2022-09-01T18:34:09.030Z,14.85
2022-09-01T18:37:19.796Z,15.10
2022-09-01T18:40:28.200Z,15.00
2022-09-01T18:43:34.447Z,14.83
2022-09-01T18:46:49.553Z,14.60
2022-09-01T18:49:56.776Z,14.56
2022-09-01T18:53:08.931Z,14.58
2022-09-01T18:56:19.596Z,14.45
2022-09-01T18:59:46.996Z,14.21
2022-09-01T19:03:08.816Z,14.38
2022-09-01T19:06:23.454Z,14.48
2022-09-01T19:09:30.478Z,14.12
2022-09-01T19:12:39.871Z,14.34
2022-09-01T19:15:48.479Z,14.13
2022-09-01T19:18:57.170Z,14.34
2022-09-01T19:22:02.570Z,14.56
2022-09-01T19:25:20.803Z,14.72
2022-09-01T19:28:31.483Z,14.36
2022-09-01T19:31:38.920Z,14.56
2022-09-01T19:34:44.817Z,14.58
2022-09-01T19:37:51.285Z,14.11
2022-09-01T19:40:55.366Z,14.05
2022-09-01T19:44:01.442Z,14.44
2022-09-01T19:47:06.192Z,13.99
2022-09-01T19:50:15.007Z,14.10
2022-09-01T19:56:44.851Z,13.21
2022-09-01T20:00:00.348Z,13.23
2022-09-01T20:03:08.193Z,13.27
2022-09-01T20:06:13.106Z,13.16
2022-09-01T20:09:17.867Z,12.97
2022-09-01T20:12:26.817Z,13.17
2022-09-01T20:15:34.231Z,13.46
2022-09-01T20:18:40.127Z,13.12
2022-09-01T20:21:44.714Z,12.99
2022-09-01T20:24:47.867Z,12.76
2022-09-01T20:27:56.206Z,12.51
2022-09-01T20:31:07.614Z,12.50
2022-09-01T20:34:15.291Z,12.38
2022-09-01T20:37:22.002Z,12.41
2022-09-01T20:40:27.490Z,12.34
2022-09-01T20:43:35.818Z,12.30
2022-09-01T20:46:39.494Z,12.78
2022-09-01T20:49:42.327Z,12.25
2022-09-01T20:52:50.340Z,12.43
2022-09-01T20:55:56.378Z,12.59
2022-09-01T20:59:02.258Z,12.17
2022-09-01T21:02:09.721Z,13.97
2022-09-01T21:05:20.481Z,13.75
2022-09-01T21:08:31.035Z,14.16
2022-09-01T21:11:43.298Z,14.58
2022-09-01T21:14:52.064Z,14.14
2022-09-01T21:18:03.206Z,14.74
2022-09-01T21:21:10.825Z,14.52
2022-09-01T21:24:13.775Z,14.82
2022-09-01T21:27:19.612Z,14.53
2022-09-01T21:30:24.226Z,14.15
2022-09-01T21:33:28.927Z,14.40
2022-09-01T21:36:31.898Z,14.27
2022-09-01T21:39:34.699Z,14.47
2022-09-01T21:42:39.881Z,13.79
2022-09-01T21:45:44.289Z,13.78
2022-09-01T21:48:47.164Z,14.42
2022-09-01T21:51:50.779Z,13.61
2022-09-01T21:54:53.738Z,13.34
2022-09-01T21:57:56.572Z,13.39
2022-09-01T22:01:02.328Z,13.30
2022-09-01T22:04:05.695Z,13.14
2022-09-01T22:07:17.004Z,12.93
2022-09-01T22:10:21.801Z,12.88
2022-09-01T22:13:25.242Z,13.24
2022-09-01T22:16:29.534Z,12.79
2022-09-01T22:19:34.043Z,13.10
2022-09-01T22:22:37.177Z,12.36
2022-09-01T22:25:42.054Z,12.27
2022-09-01T22:28:44.854Z,12.37
2022-09-01T22:31:49.287Z,12.27
2022-09-01T22:34:52.145Z,12.34
2022-09-01T22:37:54.972Z,12.20
2022-09-01T22:40:59.616Z,12.27
2022-09-01T22:44:02.599Z,12.10
2022-09-01T22:47:07.302Z,11.93
2022-09-01T22:50:10.942Z,12.00
2022-09-01T22:53:15.257Z,12.62
2022-09-01T22:56:20.436Z,11.81
2022-09-01T22:59:23.314Z,12.18
2022-09-01T23:02:28.588Z,11.74
2022-09-01T23:05:32.115Z,12.21
2022-09-01T23:08:35.184Z,11.85
2022-09-01T23:11:38.051Z,12.12
2022-09-01T23:14:40.919Z,12.28
2022-09-01T23:17:45.045Z,12.05
2022-09-01T23:20:47.855Z,11.80
2022-09-01T23:23:58.293Z,11.51
2022-09-01T23:27:01.836Z,11.89
2022-09-01T23:30:05.135Z,11.58
2022-09-01T23:33:09.307Z,11.50
2022-09-01T23:36:13.304Z,11.53
2022-09-01T23:39:16.072Z,11.52
2022-09-01T23:42:18.876Z,11.66
2022-09-01T23:45:21.687Z,11.49
2022-09-01T23:48:26.391Z,11.43
2022-09-01T23:51:29.407Z,11.45
2022-09-01T23:54:32.209Z,11.63
2022-09-01T23:57:35.260Z,11.60
